createdAt,value
2019-01-23T00:02:31.245Z,112.40
2019-01-23T00:05:02.830Z,105.93
2019-01-23T00:07:35.285Z,102.23
2019-01-23T00:10:07.926Z,117.53
2019-01-23T00:12:39.032Z,122.13
2019-01-23T00:15:11.064Z,123.73
2019-01-23T00:17:42.566Z,108.33
2019-01-23T00:20:14.861Z,106.47
2019-01-23T00:22:47.365Z,109.37
2019-01-23T00:25:19.158Z,99.27
2019-01-23T00:27:50.567Z,93.37
2019-01-23T00:30:22.405Z,96.43
2019-01-23T00:32:54.201Z,93.80
2019-01-23T00:35:26.239Z,85.67
2019-01-23T00:37:58.447Z,86.23
2019-01-23T00:40:30.524Z,92.80
2019-01-23T00:43:01.944Z,84.30
2019-01-23T00:45:33.195Z,79.80
2019-01-23T00:48:05.463Z,86.03
2019-01-23T00:50:37.294Z,79.77
2019-01-23T00:53:10.841Z,82.23
2019-01-23T00:55:42.202Z,79.90
2019-01-23T00:58:13.801Z,72.87
2019-01-23T01:00:45.875Z,77.53
2019-01-23T01:03:17.989Z,77.30
2019-01-23T01:05:49.810Z,79.00
2019-01-23T01:08:21.715Z,69.33
2019-01-23T01:10:53.959Z,78.50
2019-01-23T01:13:25.635Z,78.03
2019-01-23T01:15:57.996Z,79.03
2019-01-23T01:18:29.847Z,79.13
2019-01-23T01:21:05.552Z,79.70
2019-01-23T01:23:36.873Z,80.57
2019-01-23T01:26:08.639Z,91.40
2019-01-23T01:28:39.771Z,77.83
2019-01-23T01:31:12.833Z,88.67
2019-01-23T01:33:45.929Z,95.73
2019-01-23T01:36:18.407Z,95.87
2019-01-23T01:38:50.085Z,79.63
2019-01-23T01:41:20.755Z,88.33
2019-01-23T01:43:52.568Z,89.33
2019-01-23T01:46:24.347Z,86.43
2019-01-23T01:49:00.031Z,81.33
2019-01-23T01:51:31.511Z,78.23
2019-01-23T01:54:03.471Z,83.13
2019-01-23T01:56:34.902Z,82.07
2019-01-23T01:59:05.997Z,79.13
2019-01-23T02:01:37.226Z,86.23
2019-01-23T02:04:08.577Z,90.47
2019-01-23T02:06:39.851Z,93.17
2019-01-23T02:09:11.747Z,86.93
2019-01-23T02:11:43.658Z,87.90
2019-01-23T02:14:16.355Z,85.43
2019-01-23T02:16:49.207Z,94.80
2019-01-23T02:19:20.981Z,86.10
2019-01-23T02:21:52.293Z,95.23
2019-01-23T02:24:24.089Z,96.70
2019-01-23T02:26:56.451Z,95.77
2019-01-23T02:29:29.307Z,99.50
2019-01-23T02:32:01.530Z,92.53
2019-01-23T02:34:32.979Z,104.17
2019-01-23T02:37:05.250Z,112.90
2019-01-23T02:39:37.202Z,110.27
2019-01-23T02:42:09.152Z,112.60
2019-01-23T02:44:40.810Z,107.67
2019-01-23T02:47:12.404Z,109.00
2019-01-23T02:49:45.010Z,129.73
2019-01-23T02:52:16.269Z,133.33
2019-01-23T02:54:47.755Z,132.63
2019-01-23T02:57:19.462Z,135.40
2019-01-23T02:59:50.758Z,146.63
2019-01-23T03:02:22.924Z,143.43
2019-01-23T03:04:55.899Z,144.17
2019-01-23T03:07:28.719Z,130.27
2019-01-23T03:10:00.887Z,117.80
2019-01-23T03:12:32.625Z,116.80
2019-01-23T03:15:04.629Z,139.63
2019-01-23T03:17:35.667Z,126.67
2019-01-23T03:20:08.721Z,120.57
2019-01-23T03:22:40.313Z,131.57
2019-01-23T03:25:13.963Z,130.03
2019-01-23T03:27:45.419Z,138.17
2019-01-23T03:30:26.181Z,110.37
2019-01-23T03:32:58.092Z,126.40
2019-01-23T03:35:30.147Z,134.57
2019-01-23T03:38:02.292Z,118.87
2019-01-23T03:40:33.839Z,117.17
2019-01-23T03:43:06.748Z,107.97
2019-01-23T03:45:37.890Z,123.60
2019-01-23T03:48:10.332Z,120.47
2019-01-23T03:50:46.556Z,127.40
2019-01-23T03:53:18.417Z,124.23
2019-01-23T03:55:50.183Z,116.37
2019-01-23T03:58:22.314Z,127.87
2019-01-23T04:00:55.491Z,112.50
2019-01-23T04:03:27.232Z,106.17
2019-01-23T04:06:00.033Z,112.43
2019-01-23T04:08:31.782Z,127.53
2019-01-23T04:11:03.930Z,132.53
2019-01-23T04:13:35.645Z,129.40
2019-01-23T04:16:07.686Z,130.00
2019-01-23T04:18:39.454Z,153.00
2019-01-23T04:21:11.528Z,158.90
2019-01-23T04:23:43.148Z,107.43
2019-01-23T04:26:14.966Z,119.43
2019-01-23T04:28:47.685Z,140.43
2019-01-23T04:31:19.163Z,126.50
2019-01-23T04:33:50.804Z,141.13
2019-01-23T04:36:22.444Z,123.07
2019-01-23T04:38:55.181Z,139.00
2019-01-23T04:41:26.642Z,123.03
2019-01-23T04:43:58.816Z,149.97
2019-01-23T04:46:31.892Z,123.07
2019-01-23T04:49:03.692Z,132.00
2019-01-23T04:51:47.074Z,153.10
2019-01-23T04:54:19.767Z,130.77
2019-01-23T04:56:50.981Z,138.10
2019-01-23T04:59:22.672Z,133.63
2019-01-23T05:01:54.328Z,117.37
2019-01-23T05:04:26.116Z,123.37
2019-01-23T05:06:58.042Z,136.27
2019-01-23T05:09:29.126Z,137.77
2019-01-23T05:12:00.604Z,124.00
2019-01-23T05:14:32.597Z,125.63
2019-01-23T05:17:04.971Z,115.73
2019-01-23T05:19:37.590Z,166.10
2019-01-23T05:22:09.365Z,150.10
2019-01-23T05:24:41.520Z,137.87
2019-01-23T05:27:14.375Z,135.30
2019-01-23T05:29:54.634Z,145.37
2019-01-23T05:32:20.906Z,158.97
2019-01-23T05:34:53.272Z,168.50
2019-01-23T05:37:26.375Z,144.13
2019-01-23T05:39:58.128Z,167.23
2019-01-23T05:42:30.577Z,154.30
2019-01-23T05:45:02.463Z,175.63
2019-01-23T05:47:35.261Z,147.23
2019-01-23T05:50:09.453Z,146.60
2019-01-23T05:52:42.469Z,159.03
2019-01-23T05:55:15.273Z,131.27
2019-01-23T05:57:46.982Z,129.00
2019-01-23T06:00:21.506Z,145.60
2019-01-23T06:02:53.488Z,131.17
2019-01-23T06:05:25.678Z,137.57
2019-01-23T06:07:57.630Z,154.77
2019-01-23T06:10:29.435Z,138.43
2019-01-23T06:13:01.515Z,139.07
2019-01-23T06:15:33.282Z,137.13
2019-01-23T06:18:06.587Z,145.17
2019-01-23T06:20:39.106Z,148.63
2019-01-23T06:23:11.270Z,132.73
2019-01-23T06:25:42.845Z,126.83
2019-01-23T06:28:15.933Z,130.93
2019-01-23T06:30:48.196Z,127.40
2019-01-23T06:33:20.571Z,120.37
2019-01-23T06:35:51.813Z,135.87
2019-01-23T06:38:27.136Z,138.60
2019-01-23T06:41:00.137Z,124.27
2019-01-23T06:43:33.453Z,130.93
2019-01-23T06:46:05.572Z,133.30
2019-01-23T06:48:38.024Z,127.37
2019-01-23T06:51:09.916Z,134.60
2019-01-23T06:53:41.868Z,123.70
2019-01-23T06:56:13.386Z,126.43
2019-01-23T06:58:44.614Z,138.07
2019-01-23T07:01:16.744Z,120.13
2019-01-23T07:03:48.151Z,122.20
2019-01-23T07:06:19.026Z,148.63
2019-01-23T07:08:51.349Z,163.67
2019-01-23T07:11:23.683Z,157.10
2019-01-23T07:13:55.470Z,172.93
2019-01-23T07:16:27.269Z,188.77
2019-01-23T07:18:58.464Z,156.87
2019-01-23T07:21:29.993Z,138.90
2019-01-23T07:24:01.955Z,155.20
2019-01-23T07:26:33.544Z,151.03
2019-01-23T07:29:06.336Z,123.90
2019-01-23T07:31:38.442Z,127.13
2019-01-23T07:34:11.391Z,134.83
2019-01-23T07:36:43.519Z,140.17
2019-01-23T07:39:16.072Z,138.47
2019-01-23T07:41:46.917Z,130.57
2019-01-23T07:44:18.536Z,116.27
2019-01-23T07:46:50.144Z,134.93
2019-01-23T07:49:22.080Z,130.07
2019-01-23T07:51:53.722Z,141.73
2019-01-23T07:54:25.798Z,128.60
2019-01-23T07:56:58.501Z,143.83
2019-01-23T07:59:30.158Z,130.80
2019-01-23T08:02:02.883Z,141.97
2019-01-23T08:04:35.604Z,144.77
2019-01-23T08:07:07.691Z,130.73
2019-01-23T08:09:40.019Z,142.47
2019-01-23T08:12:12.688Z,117.73
2019-01-23T08:14:46.364Z,110.67
2019-01-23T08:17:19.308Z,101.17
2019-01-23T08:19:51.733Z,104.57
2019-01-23T08:22:23.917Z,117.17
2019-01-23T08:25:03.748Z,113.10
2019-01-23T08:27:35.968Z,98.77
2019-01-23T08:30:08.248Z,112.47
2019-01-23T08:32:40.788Z,109.77
2019-01-23T08:35:13.837Z,108.00
2019-01-23T08:37:46.117Z,101.47
2019-01-23T08:40:18.433Z,105.07
2019-01-23T08:42:51.026Z,99.97
2019-01-23T08:45:24.410Z,96.37
2019-01-23T08:47:56.185Z,87.30
2019-01-23T08:50:34.718Z,91.77
2019-01-23T08:53:07.341Z,83.03
2019-01-23T08:55:41.121Z,84.63
2019-01-23T08:58:12.110Z,78.67
2019-01-23T09:00:45.988Z,84.80
2019-01-23T09:03:17.625Z,73.13
2019-01-23T09:05:49.727Z,74.60
2019-01-23T09:08:22.185Z,79.87
2019-01-23T09:10:54.374Z,81.73
2019-01-23T09:13:25.001Z,65.63
2019-01-23T09:15:55.621Z,77.63
2019-01-23T09:18:26.331Z,67.93
2019-01-23T09:20:57.043Z,72.73
2019-01-23T09:23:27.455Z,79.00
2019-01-23T09:25:57.872Z,77.87
2019-01-23T09:28:28.334Z,63.20
2019-01-23T09:31:15.709Z,61.97
2019-01-23T09:33:52.494Z,59.23
2019-01-23T09:36:51.326Z,56.27
2019-01-23T09:39:52.966Z,54.73
2019-01-23T09:42:59.431Z,62.50
2019-01-23T09:45:57.786Z,65.07
2019-01-23T09:48:57.137Z,61.20
2019-01-23T09:52:08.807Z,78.53
2019-01-23T09:54:39.371Z,79.70
2019-01-23T09:57:09.827Z,87.40
2019-01-23T09:59:40.389Z,93.07
2019-01-23T10:02:11.150Z,91.63
2019-01-23T10:04:41.570Z,87.23
2019-01-23T10:07:11.991Z,74.67
2019-01-23T10:09:42.429Z,79.70
2019-01-23T10:12:12.930Z,68.33
2019-01-23T10:14:43.330Z,70.83
2019-01-23T10:17:13.905Z,51.90
2019-01-23T10:19:44.925Z,56.67
2019-01-23T10:22:15.415Z,49.53
2019-01-23T10:24:46.148Z,48.30
2019-01-23T10:27:16.609Z,43.53
2019-01-23T10:29:47.134Z,40.40
2019-01-23T10:32:17.666Z,40.20
2019-01-23T10:34:47.980Z,45.77
2019-01-23T10:37:19.599Z,47.17
2019-01-23T10:39:50.275Z,41.40
2019-01-23T10:42:20.730Z,41.13
2019-01-23T10:44:51.124Z,43.40
2019-01-23T10:47:21.593Z,40.33
2019-01-23T10:49:52.108Z,39.20
2019-01-23T10:52:22.457Z,37.83
2019-01-23T10:54:53.231Z,39.63
2019-01-23T10:57:23.806Z,40.80
2019-01-23T10:59:54.202Z,41.97
2019-01-23T11:02:24.662Z,38.23
2019-01-23T11:04:55.131Z,39.33
2019-01-23T11:07:25.657Z,43.07
2019-01-23T11:09:56.085Z,41.27
2019-01-23T11:12:26.469Z,41.83
2019-01-23T11:14:59.043Z,46.20
2019-01-23T11:17:29.557Z,44.73
2019-01-23T11:20:00.007Z,44.83
2019-01-23T11:22:30.460Z,43.83
2019-01-23T11:25:01.135Z,46.60
2019-01-23T11:27:32.056Z,42.80
2019-01-23T11:30:02.660Z,48.90
2019-01-23T11:32:33.403Z,43.10
2019-01-23T11:35:04.461Z,49.23
2019-01-23T11:37:35.072Z,48.47
2019-01-23T11:40:11.599Z,59.33
2019-01-23T11:42:42.387Z,56.27
2019-01-23T11:45:13.404Z,57.40
2019-01-23T11:47:44.799Z,57.10
2019-01-23T11:50:21.761Z,52.30
2019-01-23T11:52:52.096Z,63.30
2019-01-23T11:55:23.096Z,61.67
2019-01-23T11:57:54.023Z,64.20
2019-01-23T12:00:29.696Z,53.67
2019-01-23T12:03:00.526Z,56.73
2019-01-23T12:05:31.238Z,61.27
2019-01-23T12:08:02.276Z,61.03
2019-01-23T12:10:33.429Z,58.73
2019-01-23T12:13:04.176Z,61.17
2019-01-23T12:15:40.867Z,58.73
2019-01-23T12:18:07.065Z,60.17
2019-01-23T12:20:37.910Z,57.93
2019-01-23T12:23:08.638Z,58.83
2019-01-23T12:25:39.395Z,61.60
2019-01-23T12:28:10.175Z,63.20
2019-01-23T12:30:40.941Z,64.60
2019-01-23T12:33:11.833Z,59.70
2019-01-23T12:35:42.429Z,59.30
2019-01-23T12:38:13.040Z,58.97
2019-01-23T12:40:43.700Z,64.73
2019-01-23T12:43:14.445Z,63.07
2019-01-23T12:45:45.248Z,57.63
2019-01-23T12:48:16.379Z,64.93
2019-01-23T12:50:48.069Z,63.00
2019-01-23T12:53:19.390Z,62.43
2019-01-23T12:55:49.957Z,64.37
2019-01-23T12:58:20.884Z,59.97
2019-01-23T13:00:51.720Z,56.40
2019-01-23T13:03:22.363Z,58.20
2019-01-23T13:05:53.029Z,57.90
2019-01-23T13:08:23.727Z,58.73
2019-01-23T13:10:54.882Z,58.97
2019-01-23T13:13:25.478Z,65.83
2019-01-23T13:15:56.006Z,63.37
2019-01-23T13:18:26.542Z,63.67
2019-01-23T13:20:57.168Z,60.00
2019-01-23T13:23:27.910Z,61.53
2019-01-23T13:25:58.671Z,59.00
2019-01-23T13:28:29.543Z,62.97
2019-01-23T13:31:00.136Z,64.73
2019-01-23T13:33:30.753Z,61.93
2019-01-23T13:36:01.280Z,63.77
2019-01-23T13:38:31.975Z,62.03
2019-01-23T13:41:02.660Z,62.27
2019-01-23T13:43:33.176Z,62.80
2019-01-23T13:46:04.117Z,63.03
2019-01-23T13:48:34.881Z,58.50
2019-01-23T13:51:05.639Z,62.47
2019-01-23T13:53:36.211Z,60.33
2019-01-23T13:56:06.802Z,60.10
2019-01-23T13:58:41.724Z,62.80
2019-01-23T14:01:09.923Z,66.07
2019-01-23T14:03:40.772Z,66.20
2019-01-23T14:06:11.274Z,64.73
2019-01-23T14:08:42.825Z,62.67
2019-01-23T14:11:13.455Z,64.23
2019-01-23T14:13:43.992Z,62.50
2019-01-23T14:16:14.736Z,62.53
2019-01-23T14:18:45.424Z,66.27
2019-01-23T14:21:16.431Z,63.20
2019-01-23T14:23:47.302Z,67.80
2019-01-23T14:26:17.965Z,66.57
2019-01-23T14:28:49.373Z,65.13
2019-01-23T14:31:20.119Z,73.37
2019-01-23T14:33:50.785Z,66.10
2019-01-23T14:36:21.351Z,69.47
2019-01-23T14:38:52.295Z,70.70
2019-01-23T14:41:23.185Z,65.40
2019-01-23T14:43:54.185Z,67.60
2019-01-23T14:46:25.015Z,68.93
2019-01-23T14:48:55.978Z,72.33
2019-01-23T14:51:26.850Z,68.20
2019-01-23T14:53:57.523Z,70.70
2019-01-23T14:56:28.190Z,73.17
2019-01-23T14:58:59.055Z,72.93
2019-01-23T15:01:29.720Z,67.17
2019-01-23T15:04:00.282Z,79.43
2019-01-23T15:06:30.950Z,72.77
2019-01-23T15:09:01.535Z,80.60
2019-01-23T15:11:32.375Z,76.77
2019-01-23T15:14:03.340Z,76.60
2019-01-23T15:16:34.028Z,78.30
2019-01-23T15:19:05.378Z,78.07
2019-01-23T15:21:38.674Z,83.33
2019-01-23T15:24:10.560Z,75.73
2019-01-23T15:26:41.353Z,83.20
2019-01-23T15:29:12.018Z,81.47
2019-01-23T15:31:42.741Z,84.43
2019-01-23T15:34:13.796Z,88.47
2019-01-23T15:36:50.716Z,92.03
2019-01-23T15:39:21.407Z,92.13
2019-01-23T15:41:52.079Z,88.97
2019-01-23T15:44:22.958Z,91.57
2019-01-23T15:46:53.614Z,87.07
2019-01-23T15:49:24.134Z,85.60
2019-01-23T15:51:54.799Z,93.30
2019-01-23T15:54:25.398Z,83.47
2019-01-23T15:56:56.012Z,84.20
2019-01-23T15:59:26.640Z,82.27
2019-01-23T16:01:57.275Z,85.57
2019-01-23T16:04:27.900Z,77.53
2019-01-23T16:06:58.619Z,87.50
2019-01-23T16:09:29.289Z,92.17
2019-01-23T16:12:01.489Z,104.53
2019-01-23T16:14:32.470Z,96.40
2019-01-23T16:17:03.082Z,82.97
2019-01-23T16:19:34.157Z,91.83
2019-01-23T16:22:05.621Z,103.67
2019-01-23T16:24:36.413Z,119.33
2019-01-23T16:27:07.357Z,120.17
2019-01-23T16:29:38.261Z,118.87
2019-01-23T16:32:08.950Z,96.87
2019-01-23T16:34:39.512Z,102.10
2019-01-23T16:37:11.131Z,99.03
2019-01-23T16:39:41.913Z,112.20
2019-01-23T16:42:12.647Z,120.63
2019-01-23T16:44:43.479Z,134.57
2019-01-23T16:47:14.135Z,179.17
2019-01-23T16:49:44.926Z,243.33
2019-01-23T16:52:15.577Z,260.53
2019-01-23T16:54:46.127Z,366.17
2019-01-23T16:57:16.795Z,263.93
2019-01-23T16:59:47.441Z,255.97
2019-01-23T17:02:18.295Z,135.73
2019-01-23T17:04:49.190Z,276.47
2019-01-23T17:07:19.834Z,395.37
2019-01-23T17:09:50.377Z,400.27
2019-01-23T17:12:20.987Z,444.00
2019-01-23T17:14:51.592Z,464.57
2019-01-23T17:17:22.199Z,453.13
2019-01-23T17:19:52.839Z,490.40
2019-01-23T17:22:23.549Z,505.37
2019-01-23T17:24:54.103Z,528.97
2019-01-23T17:27:24.662Z,495.67
2019-01-23T17:29:55.863Z,435.97
2019-01-23T17:32:26.767Z,499.97
2019-01-23T17:34:57.320Z,517.20
2019-01-23T17:37:28.048Z,293.20
2019-01-23T17:39:58.719Z,359.47
2019-01-23T17:42:29.310Z,344.30
2019-01-23T17:45:00.238Z,345.47
2019-01-23T17:47:31.235Z,340.83
2019-01-23T17:50:01.918Z,352.60
2019-01-23T17:52:34.594Z,369.20
2019-01-23T17:55:08.529Z,374.30
2019-01-23T17:57:39.265Z,221.93
2019-01-23T18:00:13.752Z,401.40
2019-01-23T18:02:44.865Z,311.17
2019-01-23T18:05:15.848Z,198.67
2019-01-23T18:07:46.751Z,165.87
2019-01-23T18:10:18.897Z,230.50
2019-01-23T18:12:49.877Z,197.70
2019-01-23T18:15:22.341Z,203.63
2019-01-23T18:17:53.248Z,182.43
2019-01-23T18:20:28.806Z,296.03
2019-01-23T18:22:59.654Z,195.57
2019-01-23T18:25:30.491Z,231.37
2019-01-23T18:28:01.349Z,178.57
2019-01-23T18:30:45.255Z,338.60
2019-01-23T18:33:18.025Z,423.90
2019-01-23T18:36:09.000Z,456.67
2019-01-23T18:39:03.691Z,374.87
2019-01-23T18:42:23.373Z,436.87
2019-01-23T18:45:31.256Z,314.63
2019-01-23T18:48:37.392Z,259.97
2019-01-23T18:51:36.824Z,269.77
2019-01-23T18:54:07.777Z,335.53
2019-01-23T18:56:38.784Z,489.03
2019-01-23T18:59:09.874Z,367.33
2019-01-23T19:01:40.589Z,363.27
2019-01-23T19:04:11.344Z,329.50
2019-01-23T19:06:42.088Z,574.40
2019-01-23T19:09:13.148Z,250.90
2019-01-23T19:11:43.822Z,243.53
2019-01-23T19:14:14.594Z,177.77
2019-01-23T19:16:45.347Z,170.20
2019-01-23T19:19:15.923Z,165.43
2019-01-23T19:21:46.644Z,142.87
2019-01-23T19:24:17.285Z,188.10
2019-01-23T19:26:48.093Z,165.57
2019-01-23T19:29:18.847Z,192.27
2019-01-23T19:31:49.459Z,187.17
2019-01-23T19:34:20.110Z,173.20
2019-01-23T19:36:50.826Z,198.07
2019-01-23T19:39:22.294Z,546.80
2019-01-23T19:41:53.047Z,289.53
2019-01-23T19:44:23.773Z,290.37
2019-01-23T19:46:55.212Z,632.80
2019-01-23T19:49:26.829Z,236.03
2019-01-23T19:51:57.784Z,555.43
2019-01-23T19:54:28.906Z,566.43
2019-01-23T19:56:59.622Z,401.50
2019-01-23T19:59:30.266Z,180.07
2019-01-23T20:02:01.478Z,626.50
2019-01-23T20:04:32.898Z,780.33
2019-01-23T20:07:03.420Z,198.73
2019-01-23T20:09:35.549Z,293.27
2019-01-23T20:12:06.996Z,358.87
2019-01-23T20:14:37.869Z,363.67
2019-01-23T20:17:08.862Z,301.97
2019-01-23T20:19:40.244Z,602.47
2019-01-23T20:22:11.405Z,505.50
2019-01-23T20:24:42.589Z,751.83
2019-01-23T20:27:14.852Z,427.97
2019-01-23T20:29:46.966Z,569.73
2019-01-23T20:32:19.468Z,164.60
2019-01-23T20:34:50.486Z,566.70
2019-01-23T20:37:23.446Z,732.53
2019-01-23T20:39:54.361Z,436.10
2019-01-23T20:42:24.977Z,437.10
2019-01-23T20:44:55.679Z,284.27
2019-01-23T20:47:26.449Z,319.43
2019-01-23T20:49:57.057Z,731.77
2019-01-23T20:52:29.507Z,692.70
2019-01-23T20:55:00.186Z,524.53
2019-01-23T20:57:30.938Z,340.27
2019-01-23T21:00:01.585Z,181.07
2019-01-23T21:02:32.227Z,251.27
2019-01-23T21:05:02.937Z,154.57
2019-01-23T21:07:33.671Z,355.83
2019-01-23T21:10:04.535Z,451.90
2019-01-23T21:12:35.138Z,323.63
2019-01-23T21:15:06.909Z,332.20
2019-01-23T21:17:38.015Z,426.60
2019-01-23T21:20:08.996Z,580.47
2019-01-23T21:22:39.619Z,849.83
2019-01-23T21:25:10.506Z,736.17
2019-01-23T21:27:41.216Z,478.57
2019-01-23T21:30:15.955Z,201.93
2019-01-23T21:32:46.664Z,687.27
2019-01-23T21:35:17.973Z,460.10
2019-01-23T21:37:48.657Z,492.17
2019-01-23T21:40:21.744Z,735.37
2019-01-23T21:42:52.466Z,625.00
2019-01-23T21:45:23.448Z,323.13
2019-01-23T21:48:00.021Z,760.27
2019-01-23T21:50:30.664Z,602.87
2019-01-23T21:53:04.355Z,753.33
2019-01-23T21:55:35.778Z,635.17
2019-01-23T22:02:00.543Z,969.57
2019-01-23T22:04:31.233Z,780.37
2019-01-23T22:07:01.957Z,797.50
2019-01-23T22:09:32.738Z,880.33
2019-01-23T22:12:03.385Z,883.63
2019-01-23T22:14:34.029Z,352.50
2019-01-23T22:17:04.862Z,341.50
2019-01-23T22:19:35.784Z,254.10
2019-01-23T22:22:08.142Z,382.30
2019-01-23T22:24:39.793Z,212.40
2019-01-23T22:27:11.763Z,209.20
2019-01-23T22:29:43.364Z,189.90
2019-01-23T22:32:14.306Z,411.00
2019-01-23T22:34:46.414Z,421.93
2019-01-23T22:37:18.252Z,538.53
2019-01-23T22:39:50.061Z,557.03
2019-01-23T22:42:21.723Z,544.00
2019-01-23T22:44:53.843Z,243.77
2019-01-23T22:47:25.858Z,538.43
2019-01-23T22:49:57.491Z,234.90
2019-01-23T22:52:28.646Z,158.27
2019-01-23T22:55:01.294Z,140.57
2019-01-23T22:57:33.733Z,88.13
2019-01-23T23:00:08.821Z,96.63
2019-01-23T23:02:40.605Z,62.53
2019-01-23T23:05:14.162Z,55.67
2019-01-23T23:07:46.239Z,29.03
2019-01-23T23:10:18.535Z,17.50
2019-01-23T23:12:49.653Z,18.20
2019-01-23T23:15:21.578Z,16.53
2019-01-23T23:17:54.083Z,15.37
2019-01-23T23:20:25.966Z,11.40
2019-01-23T23:22:57.531Z,13.47
2019-01-23T23:25:29.560Z,10.33
2019-01-23T23:28:01.936Z,8.70
2019-01-23T23:30:33.660Z,10.50
2019-01-23T23:33:04.968Z,7.57
2019-01-23T23:35:36.252Z,7.37
2019-01-23T23:38:08.068Z,13.37
2019-01-23T23:40:40.948Z,6.20
2019-01-23T23:43:13.092Z,5.90
2019-01-23T23:45:44.687Z,4.37
2019-01-23T23:48:16.674Z,5.23
2019-01-23T23:50:48.628Z,4.77
2019-01-23T23:53:20.946Z,3.87
2019-01-23T23:55:53.797Z,2.73
2019-01-23T23:58:26.130Z,3.20
